METAR Data
IDs: Format: Raw Decoded Include TAF

Data at: 2044 UTC 23 Oct 2021

EPSY 232030Z 30005KT 260V340 CAVOK 03/03 Q1024